Time;durP1;ratioP1;P1;durP2;ratioP2;P2;SDS_P1;SDS_P2;PMS_P1;PMS_P2;Temp;Humidity;BMP_temperature;BMP_pressure;BME280_temperature;BME280_humidity;BME280_pressure;Samples;Min_cycle;Max_cycle;Signal;HPM_P1;HPM_P2
2022/03/02 00:02:57;;;;;;;56.75;20.35;;;;;;;-6.42;60.21;97817.31;6320341;28;20629;-63
2022/03/02 00:06:03;;;;;;;46.83;17.98;;;;;;;-6.48;60.45;97824.91;6319952;28;20052;-64
2022/03/02 00:09:07;;;;;;;44.13;16.52;;;;;;;-6.51;60.18;97824.84;6320470;28;20048;-64
2022/03/02 00:12:10;;;;;;;37.38;16.13;;;;;;;-6.56;60.38;97839.25;6319158;28;20052;-64
2022/03/02 00:15:12;;;;;;;58.95;20.65;;;;;;;-6.59;60.77;97834.09;6320148;28;20056;-64
2022/03/02 00:18:16;;;;;;;62.30;21.25;;;;;;;-6.68;60.18;97831.34;6320703;28;20044;-64
2022/03/02 00:21:18;;;;;;;64.90;23.33;;;;;;;-6.68;60.70;97833.91;6302158;28;20044;-64
2022/03/02 00:24:22;;;;;;;70.43;26.63;;;;;;;-6.70;60.78;97830.47;6319558;28;20125;-64
2022/03/02 00:27:24;;;;;;;79.90;27.73;;;;;;;-6.76;60.78;97844.00;6320019;28;20048;-64
2022/03/02 00:30:30;;;;;;;89.75;29.23;;;;;;;-6.83;60.74;97832.78;6319265;28;20545;-63
2022/03/02 00:33:31;;;;;;;81.10;27.17;;;;;;;-6.92;60.05;97839.44;6320043;28;20056;-64
2022/03/02 00:36:33;;;;;;;64.35;24.70;;;;;;;-7.00;60.75;97842.69;6319504;28;20131;-63
2022/03/02 00:39:37;;;;;;;61.72;24.17;;;;;;;-7.00;61.10;97840.13;6319630;28;20047;-63
2022/03/02 00:42:43;;;;;;;60.67;22.48;;;;;;;-7.03;60.49;97836.66;6320089;28;20051;-65
2022/03/02 00:45:50;;;;;;;50.75;20.58;;;;;;;-7.01;60.36;97842.69;6319131;28;20059;-64
2022/03/02 00:48:59;;;;;;;45.25;17.20;;;;;;;-7.02;60.15;97838.38;6320334;28;20044;-64
2022/03/02 00:52:02;;;;;;;46.30;17.80;;;;;;;-7.10;60.37;97829.72;6314944;28;20055;-64
2022/03/02 00:55:06;;;;;;;47.20;16.23;;;;;;;-7.16;60.17;97842.34;6320486;28;20502;-64
2022/03/02 00:58:07;;;;;;;42.83;16.38;;;;;;;-7.23;60.33;97834.56;6319518;28;20051;-63
2022/03/02 01:01:11;;;;;;;40.53;14.02;;;;;;;-7.20;60.09;97843.13;6320004;28;20138;-65
2022/03/02 01:04:15;;;;;;;38.15;14.57;;;;;;;-7.26;59.90;97847.28;6320101;28;20036;-64
2022/03/02 01:07:17;;;;;;;44.55;16.98;;;;;;;-7.32;60.18;97847.16;6301558;28;20044;-64
2022/03/02 01:10:20;;;;;;;32.55;14.30;;;;;;;-7.32;60.37;97847.16;6319642;28;20064;-65
2022/03/02 01:13:22;;;;;;;38.60;13.95;;;;;;;-7.36;59.97;97850.50;6319170;28;20063;-64
2022/03/02 01:16:23;;;;;;;35.10;13.27;;;;;;;-7.40;59.92;97858.94;6321037;28;20047;-64
2022/03/02 01:19:25;;;;;;;44.08;16.20;;;;;;;-7.44;60.65;97846.91;6324208;28;20055;-64
2022/03/02 01:22:28;;;;;;;35.83;15.07;;;;;;;-7.43;60.63;97858.00;6323971;28;20052;-63
2022/03/02 01:25:29;;;;;;;32.95;14.25;;;;;;;-7.41;61.03;97852.09;6323620;28;20048;-64
2022/03/02 01:28:37;;;;;;;28.52;12.95;;;;;;;-7.39;60.80;97852.09;6324453;28;20499;-64
2022/03/02 01:31:41;;;;;;;29.90;14.20;;;;;;;-7.40;60.84;97847.84;6323829;28;20059;-63
2022/03/02 01:34:43;;;;;;;31.48;14.55;;;;;;;-7.43;60.51;97843.53;6305863;28;20052;-69
2022/03/02 01:37:47;;;;;;;36.58;13.23;;;;;;;-7.51;60.74;97845.03;6323386;28;20219;-63
2022/03/02 01:40:52;;;;;;;36.47;14.02;;;;;;;-7.47;61.31;97854.53;6323675;28;20130;-63
2022/03/02 01:43:55;;;;;;;30.35;13.32;;;;;;;-7.51;61.27;97850.16;6323688;28;20074;-65
2022/03/02 01:46:56;;;;;;;34.10;13.65;;;;;;;-7.52;61.22;97858.66;6323536;28;20044;-64
2022/03/02 01:49:57;;;;;;;35.50;15.05;;;;;;;-7.53;61.86;97847.59;6322563;28;20052;-63
2022/03/02 01:53:02;;;;;;;37.40;13.55;;;;;;;-7.56;62.18;97826.19;6323127;28;20056;-63
2022/03/02 01:56:06;;;;;;;33.25;13.45;;;;;;;-7.47;61.81;97846.84;6323917;28;20427;-64
2022/03/02 01:59:10;;;;;;;27.73;13.15;;;;;;;-7.44;61.37;97852.03;6323842;28;20051;-64
2022/03/02 02:02:11;;;;;;;33.42;13.07;;;;;;;-7.47;61.81;97857.94;6322834;28;20046;-64
2022/03/02 02:05:13;;;;;;;27.90;12.45;;;;;;;-7.48;61.59;97863.00;6323528;28;20036;-65
2022/03/02 02:08:17;;;;;;;;;;;;;;;-7.52;61.60;97864.63;6323746;28;20048;-65
2022/03/02 02:11:19;;;;;;;30.40;13.18;;;;;;;-7.52;61.88;97874.00;6322841;28;19942;-65
2022/03/02 02:14:22;;;;;;;27.45;13.38;;;;;;;-7.54;62.51;97884.19;6323417;28;20131;-64
2022/03/02 02:17:24;;;;;;;35.30;15.35;;;;;;;-7.55;62.95;97881.59;6321618;28;20048;-64
2022/03/02 02:20:28;;;;;;;34.05;13.80;;;;;;;-7.51;62.91;97885.94;6323317;28;20492;-64
2022/03/02 02:23:31;;;;;;;30.70;13.80;;;;;;;-7.57;62.59;97885.81;6321264;28;20051;-64
2022/03/02 02:26:33;;;;;;;42.90;14.50;;;;;;;-7.63;62.31;97895.91;6321794;28;20265;-63
2022/03/02 02:29:37;;;;;;;41.00;14.40;;;;;;;-7.70;62.62;97900.88;6322044;28;20047;-63
2022/03/02 02:32:39;;;;;;;35.13;15.30;;;;;;;-7.70;62.64;97895.75;6322243;28;20047;-64
2022/03/02 02:35:44;;;;;;;38.88;14.52;;;;;;;-7.70;62.18;97900.00;6322838;28;20376;-64
2022/03/02 02:38:45;;;;;;;44.83;14.20;;;;;;;-7.75;62.44;97910.13;6322300;28;20575;-64
2022/03/02 02:41:51;;;;;;;36.85;13.43;;;;;;;-7.83;62.04;97906.53;6322280;28;20506;-64
2022/03/02 02:44:55;;;;;;;37.15;16.27;;;;;;;-7.87;62.06;97908.94;6322051;28;20076;-64
2022/03/02 02:47:59;;;;;;;37.75;16.67;;;;;;;-7.92;62.22;97906.31;6321975;28;20048;-64
2022/03/02 02:51:06;;;;;;;38.17;16.95;;;;;;;-7.97;61.91;97911.28;6322437;28;20128;-65
2022/03/02 02:54:07;;;;;;;34.70;15.82;;;;;;;-7.96;61.60;97904.47;6321380;28;20427;-63
2022/03/02 02:57:11;;;;;;;35.33;14.20;;;;;;;-7.98;62.07;97908.69;6322054;28;20044;-64
2022/03/02 03:00:16;;;;;;;43.05;15.80;;;;;;;-7.97;61.58;97915.53;6321291;28;20417;-63
2022/03/02 03:03:19;;;;;;;42.80;16.52;;;;;;;-7.97;61.28;97910.44;6320666;28;20105;-65
2022/03/02 03:06:21;;;;;;;45.42;18.20;;;;;;;-7.94;61.32;97902.84;6321008;28;20048;-64
2022/03/02 03:09:22;;;;;;;38.90;16.98;;;;;;;-7.88;61.47;97913.19;6321505;28;20412;-64
2022/03/02 03:12:23;;;;;;;50.92;17.95;;;;;;;-7.83;61.41;97908.22;6321160;28;20056;-64
2022/03/02 03:15:25;;;;;;;48.22;18.95;;;;;;;-7.78;61.27;97902.38;6320708;28;20154;-64
2022/03/02 03:18:29;;;;;;;47.50;19.63;;;;;;;-7.71;61.58;97911.91;6321771;28;20048;-63
2022/03/02 03:21:30;;;;;;;51.30;19.38;;;;;;;-7.62;61.12;97913.81;6320545;28;20040;-63
2022/03/02 03:24:31;;;;;;;65.97;20.40;;;;;;;-7.55;61.07;97904.59;6320986;28;20528;-64
2022/03/02 03:27:36;;;;;;;58.72;20.30;;;;;;;-7.47;60.67;97913.31;6321431;28;20048;-64
2022/03/02 03:30:43;;;;;;;47.75;19.35;;;;;;;-7.40;60.51;97920.28;6321306;28;20059;-64
2022/03/02 03:33:47;;;;;;;59.38;20.52;;;;;;;-7.24;60.97;97931.72;6321276;28;20048;-64
2022/03/02 03:36:48;;;;;;;66.97;24.83;;;;;;;-7.11;60.86;97932.84;6321313;28;20110;-64
2022/03/02 03:39:50;;;;;;;62.08;21.70;;;;;;;-7.01;60.09;97945.88;6319513;28;20080;-63
2022/03/02 03:42:53;;;;;;;61.05;20.90;;;;;;;-6.91;60.12;97951.16;6320345;28;20044;-63
2022/03/02 03:45:56;;;;;;;70.50;22.98;;;;;;;-6.85;60.29;97947.06;6320183;28;20086;-63
2022/03/02 03:48:58;;;;;;;64.78;22.98;;;;;;;-6.79;59.92;97957.41;6320397;28;20044;-64
2022/03/02 03:51:59;;;;;;;59.35;22.45;;;;;;;-6.74;59.82;97949.81;6319205;28;20052;-63
2022/03/02 03:55:05;;;;;;;57.70;21.27;;;;;;;-6.65;59.17;97955.16;6320736;28;20047;-64
2022/03/02 03:58:07;;;;;;;59.05;21.70;;;;;;;-6.58;59.77;97956.13;6320330;28;20091;-64
2022/03/02 04:01:08;;;;;;;52.67;23.30;;;;;;;-6.50;59.83;97956.28;6319895;28;20044;-64
2022/03/02 04:04:15;;;;;;;55.28;21.02;;;;;;;-6.40;59.65;97961.59;6320641;28;20127;-64
2022/03/02 04:07:19;;;;;;;51.42;19.73;;;;;;;-6.33;59.55;97955.75;6320694;28;20040;-65
2022/03/02 04:10:23;;;;;;;55.13;20.58;;;;;;;-6.26;58.84;97949.03;6320683;28;20147;-65
2022/03/02 04:13:24;;;;;;;50.10;19.30;;;;;;;-6.13;58.53;97947.59;6320041;28;20192;-64
2022/03/02 04:16:31;;;;;;;;;;;;;;;-6.05;58.10;97953.72;6319886;28;20055;-63
2022/03/02 04:19:36;;;;;;;43.75;17.35;;;;;;;-6.00;58.70;97949.53;6320077;28;20019;-63
2022/03/02 04:22:37;;;;;;;46.63;18.55;;;;;;;-5.92;57.92;97941.94;6319801;28;20044;-64
2022/03/02 04:25:39;;;;;;;46.30;18.60;;;;;;;-5.79;57.91;97950.69;6319096;28;20056;-63
2022/03/02 04:28:40;;;;;;;40.22;16.88;;;;;;;-5.66;58.39;97957.78;6319202;28;20044;-63
2022/03/02 04:31:41;;;;;;;45.45;18.38;;;;;;;-5.58;57.77;97956.16;6319264;28;20131;-64
2022/03/02 04:34:48;;;;;;;46.85;19.30;;;;;;;-5.43;58.03;97960.69;6320255;28;20044;-65
2022/03/02 04:37:50;;;;;;;44.80;19.95;;;;;;;-5.27;57.36;97966.91;6319407;28;20044;-64
2022/03/02 04:40:51;;;;;;;47.55;19.42;;;;;;;-5.16;57.63;97955.09;6319276;28;20123;-64
2022/03/02 04:43:52;;;;;;;49.45;20.33;;;;;;;-5.05;57.59;97958.69;6320537;28;20051;-64
2022/03/02 04:46:56;;;;;;;51.13;21.27;;;;;;;-4.82;57.46;97981.22;6319022;28;20048;-63
2022/03/02 04:49:58;;;;;;;52.92;20.27;;;;;;;-4.67;57.30;97981.47;6318721;28;20055;-64
2022/03/02 04:52:59;;;;;;;47.67;20.80;;;;;;;-4.51;56.97;97973.06;6323289;28;20119;-64
2022/03/02 04:56:01;;;;;;;51.75;22.45;;;;;;;-4.33;58.19;97976.69;6323902;28;20044;-64
2022/03/02 04:59:04;;;;;;;50.13;21.70;;;;;;;-4.11;58.17;97983.81;6325088;28;20031;-64
2022/03/02 05:02:06;;;;;;;57.53;22.65;;;;;;;-3.94;57.13;97980.56;6324018;28;20044;-64
2022/03/02 05:05:15;;;;;;;55.38;21.70;;;;;;;-3.75;57.57;97982.47;6325179;28;20048;-64
2022/03/02 05:08:21;;;;;;;62.10;29.88;;;;;;;-3.56;57.62;97983.50;6325008;28;20059;-64
2022/03/02 05:11:22;;;;;;;59.30;26.80;;;;;;;-3.37;57.38;97984.50;6324113;28;20533;-64
2022/03/02 05:14:27;;;;;;;61.15;25.50;;;;;;;-3.21;57.07;97996.66;6323738;28;20443;-63
2022/03/02 05:17:28;;;;;;;59.00;25.55;;;;;;;-3.07;56.99;97988.16;6323287;28;20048;-64
2022/03/02 05:20:32;;;;;;;;;;;;;;;-2.91;57.43;97995.16;6323717;28;20063;-63
2022/03/02 05:23:33;;;;;;;45.90;20.20;;;;;;;-2.76;56.47;98000.38;6324064;28;19920;-64
2022/03/02 05:26:39;;;;;;;45.47;21.38;;;;;;;-2.57;56.48;98001.34;6324111;28;20046;-63
2022/03/02 05:29:41;;;;;;;27.15;12.98;;;;;;;-2.37;55.71;97998.00;6323430;28;20044;-63
2022/03/02 05:32:48;;;;;;;21.75;11.15;;;;;;;-2.24;55.51;98004.06;6323160;28;20110;-64
2022/03/02 05:35:49;;;;;;;33.30;12.82;;;;;;;-2.11;55.44;98008.41;6323536;28;20091;-64
2022/03/02 05:38:54;;;;;;;13.80;7.53;;;;;;;-1.97;55.39;98017.06;6324306;28;20056;-64
2022/03/02 05:41:57;;;;;;;;;;;;;;;-1.86;55.28;98012.81;6324751;28;20513;-64
2022/03/02 05:44:59;;;;;;;7.18;4.30;;;;;;;-1.70;55.06;98017.97;6323828;28;20060;-64
2022/03/02 05:48:02;;;;;;;6.97;4.85;;;;;;;-0.34;52.87;98017.03;6324036;28;20044;-65
2022/03/02 05:51:06;;;;;;;7.38;4.15;;;;;;;5.33;42.53;98021.06;6323993;28;20438;-64
2022/03/02 05:54:08;;;;;;;7.82;4.28;;;;;;;9.97;33.67;98013.75;6322879;28;20055;-65
2022/03/02 05:57:12;;;;;;;7.03;3.88;;;;;;;13.23;28.86;98023.59;6322689;28;20040;-64
2022/03/02 06:00:17;;;;;;;5.25;3.20;;;;;;;16.14;25.74;98030.97;6322329;28;20089;-64
2022/03/02 06:03:19;;;;;;;5.22;3.10;;;;;;;18.06;23.03;98016.16;6322617;28;20055;-64
2022/03/02 06:06:23;;;;;;;6.60;3.40;;;;;;;19.80;20.95;98024.47;6322588;28;20051;-64
2022/03/02 06:09:25;;;;;;;5.20;3.50;;;;;;;20.82;19.67;98022.78;6295968;28;20490;-64
2022/03/02 06:12:27;;;;;;;4.75;2.75;;;;;;;21.94;18.56;98021.53;6297838;28;20063;-63
2022/03/02 06:15:30;;;;;;;5.00;2.55;;;;;;;22.50;16.97;98010.97;6298194;28;20051;-63
2022/03/02 06:18:33;;;;;;;4.50;3.03;;;;;;;21.92;16.70;98011.94;6297944;28;20143;-64
2022/03/02 06:21:43;;;;;;;5.28;3.40;;;;;;;21.81;16.26;98014.78;6298068;28;20044;-65
2022/03/02 06:24:45;;;;;;;4.50;3.40;;;;;;;22.28;15.56;98005.00;6297582;28;20441;-64
2022/03/02 06:27:49;;;;;;;5.43;3.00;;;;;;;23.09;15.40;98012.44;6297939;28;20066;-64
2022/03/02 06:30:53;;;;;;;5.75;3.05;;;;;;;24.51;14.59;98012.50;6297522;28;20059;-64
2022/03/02 06:34:00;;;;;;;4.03;3.15;;;;;;;25.97;13.33;98013.97;6298031;28;20174;-63
2022/03/02 06:37:03;;;;;;;2.78;2.15;;;;;;;26.52;13.17;98017.81;6291793;28;20531;-64
2022/03/02 06:40:11;;;;;;;2.63;2.20;;;;;;;26.09;12.87;98017.16;6297591;28;20037;-64
2022/03/02 06:43:20;;;;;;;2.53;1.70;;;;;;;25.42;12.50;98011.88;6295458;28;20071;-64
2022/03/02 06:47:00;;;;;;;2.65;1.73;;;;;;;24.85;13.02;98007.13;6296100;28;20061;-64
2022/03/02 06:50:08;;;;;;;3.05;1.95;;;;;;;25.05;12.42;98016.66;6275186;28;20052;-64
2022/03/02 06:53:13;;;;;;;3.83;2.13;;;;;;;24.99;12.06;98003.81;6297408;28;20060;-64
2022/03/02 06:56:18;;;;;;;2.83;2.00;;;;;;;26.08;11.79;98002.84;6297167;28;20055;-64
2022/03/02 06:59:29;;;;;;;2.42;2.00;;;;;;;28.06;10.84;98004.50;6296427;28;20423;-64
2022/03/02 07:02:38;;;;;;;3.00;2.17;;;;;;;28.86;9.75;98011.13;6297046;28;20523;-63
2022/03/02 07:05:40;;;;;;;3.33;1.90;;;;;;;29.02;9.92;98005.50;6296788;28;20049;-64
2022/03/02 07:08:48;;;;;;;2.58;2.00;;;;;;;28.72;9.95;97999.28;6305391;28;20044;-64
2022/03/02 07:11:52;;;;;;;3.17;1.80;;;;;;;28.59;10.01;97991.81;6321976;28;20190;-63
2022/03/02 07:15:00;;;;;;;4.32;2.30;;;;;;;28.10;9.94;97992.28;6321297;28;20495;-64
2022/03/02 07:18:05;;;;;;;3.28;2.42;;;;;;;27.13;10.27;97978.41;6321834;28;20503;-64
2022/03/02 07:21:11;;;;;;;4.53;2.60;;;;;;;26.98;10.42;97982.91;6321762;28;20134;-63
2022/03/02 07:24:17;;;;;;;3.95;2.72;;;;;;;26.72;10.69;97969.66;6320855;28;20411;-63
2022/03/02 07:27:20;;;;;;;4.30;2.47;;;;;;;27.12;10.18;97974.03;6321361;28;20052;-66
2022/03/02 07:30:21;;;;;;;;;;;;;;;28.83;9.72;97981.72;6321793;28;20047;-64
2022/03/02 07:33:27;;;;;;;4.40;2.95;;;;;;;27.30;9.77;97987.31;6321679;28;19924;-64
2022/03/02 07:36:35;;;;;;;4.97;2.85;;;;;;;26.83;10.26;97978.22;6321562;28;20122;-64
2022/03/02 07:39:44;;;;;;;4.22;2.88;;;;;;;27.19;10.01;97969.63;6321433;28;20135;-64
2022/03/02 07:42:49;;;;;;;5.13;3.13;;;;;;;28.38;9.55;97983.56;6321289;28;20059;-64
2022/03/02 07:45:53;;;;;;;5.68;3.85;;;;;;;28.02;9.38;97975.28;6321276;28;20035;-64
2022/03/02 07:49:00;;;;;;;4.47;2.80;;;;;;;28.40;9.75;97970.69;6321353;28;20040;-64
2022/03/02 07:52:08;;;;;;;5.95;3.95;;;;;;;29.06;9.18;97982.44;6321139;28;20036;-64
2022/03/02 07:55:09;;;;;;;5.82;3.60;;;;;;;29.53;8.98;97975.69;6320595;28;20055;-65
2022/03/02 07:58:16;;;;;;;7.72;4.70;;;;;;;28.73;9.12;97981.16;6319583;28;20538;-64
2022/03/02 08:01:22;;;;;;;5.85;4.07;;;;;;;26.94;9.91;97976.16;6321098;28;20052;-64
2022/03/02 08:04:27;;;;;;;6.32;4.10;;;;;;;25.49;10.63;97970.63;6320266;28;20044;-64
2022/03/02 08:07:30;;;;;;;7.70;5.32;;;;;;;26.47;10.54;97968.88;6319411;28;20052;-64
2022/03/02 08:10:34;;;;;;;14.82;8.52;;;;;;;27.80;9.63;97963.47;6319208;28;20457;-64
2022/03/02 08:13:36;;;;;;;9.50;5.45;;;;;;;27.40;9.41;97957.31;6320411;28;20121;-63
2022/03/02 08:16:44;;;;;;;5.35;4.05;;;;;;;26.09;10.40;97953.28;6320491;28;20052;-64
2022/03/02 08:19:48;;;;;;;9.23;5.38;;;;;;;25.98;10.63;97957.16;6320727;28;20071;-64
2022/03/02 08:22:57;;;;;;;9.95;5.85;;;;;;;26.12;10.62;97954.78;6320006;28;20048;-64
2022/03/02 08:25:59;;;;;;;10.38;5.85;;;;;;;25.57;10.46;97958.19;6320262;28;20704;-64
2022/03/02 08:29:08;;;;;;;9.15;5.82;;;;;;;25.81;10.68;97950.06;6320172;28;20051;-64
2022/03/02 08:32:10;;;;;;;15.05;8.98;;;;;;;24.93;10.75;97958.69;6320434;28;20051;-63
2022/03/02 08:35:18;;;;;;;12.30;7.65;;;;;;;24.20;11.11;97948.41;6320469;28;20036;-64
2022/03/02 08:38:25;;;;;;;9.65;6.97;;;;;;;24.29;11.37;97946.63;6320498;28;20043;-63
2022/03/02 08:41:30;;;;;;;11.88;6.80;;;;;;;25.86;10.84;97957.69;6320304;28;20047;-64
2022/03/02 08:44:35;;;;;;;;;;;;;;;28.29;9.60;97957.59;6320429;28;20048;-64
2022/03/02 08:47:41;;;;;;;15.02;6.75;;;;;;;26.63;10.16;97940.00;6320327;28;19920;-64
2022/03/02 08:50:45;;;;;;;11.35;6.47;;;;;;;25.42;10.55;97936.44;6319519;28;20511;-62
2022/03/02 08:53:53;;;;;;;12.27;6.88;;;;;;;23.66;11.76;97929.72;6318880;28;20036;-65
2022/03/02 08:57:04;;;;;;;10.43;6.32;;;;;;;24.47;11.37;97928.59;6320457;28;20044;-64
2022/03/02 09:00:07;;;;;;;9.63;5.97;;;;;;;24.76;11.03;97928.19;6319995;28;20036;-63
2022/03/02 09:03:16;;;;;;;9.63;5.53;;;;;;;24.71;11.58;97924.31;6319885;28;20044;-64
2022/03/02 09:06:25;;;;;;;9.55;5.63;;;;;;;24.20;11.65;97922.38;6319906;28;20131;-63
2022/03/02 09:09:29;;;;;;;10.13;5.65;;;;;;;23.77;11.74;97909.00;6319753;28;20052;-64
2022/03/02 09:12:33;;;;;;;8.73;5.03;;;;;;;23.92;11.75;97899.34;6319798;28;20533;-64
2022/03/02 09:15:37;;;;;;;7.65;4.88;;;;;;;23.23;12.16;97903.66;6320036;28;20040;-64
2022/03/02 09:18:48;;;;;;;8.55;5.07;;;;;;;21.64;13.12;97895.81;6320130;28;20043;-63
2022/03/02 09:21:50;;;;;;;5.75;4.13;;;;;;;20.61;14.03;97898.03;6319286;28;20461;-65
2022/03/02 09:24:51;;;;;;;10.02;5.25;;;;;;;19.28;14.86;97886.34;6319365;28;20052;-64
2022/03/02 09:27:58;;;;;;;9.77;5.65;;;;;;;19.01;15.45;97894.84;6319660;28;20040;-64
2022/03/02 09:31:08;;;;;;;7.07;5.28;;;;;;;18.17;15.96;97883.00;6320001;28;20050;-64
2022/03/02 09:34:10;;;;;;;9.02;4.45;;;;;;;18.19;15.92;97875.75;6319025;28;20486;-64
2022/03/02 09:37:14;;;;;;;6.93;4.80;;;;;;;17.92;16.11;97871.66;6321166;28;20415;-64
2022/03/02 09:40:30;;;;;;;8.88;5.10;;;;;;;17.98;16.31;97872.13;6324295;28;20044;-64
2022/03/02 09:43:34;;;;;;;7.57;4.55;;;;;;;19.01;15.55;97870.00;6324319;28;20039;-65
2022/03/02 09:46:41;;;;;;;7.53;5.60;;;;;;;20.27;14.54;97878.75;6324342;28;20044;-65
2022/03/02 09:50:03;;;;;;;7.93;4.47;;;;;;;19.84;14.91;97876.31;6324243;28;20485;-64
2022/03/02 09:53:12;;;;;;;7.05;4.18;;;;;;;19.15;15.21;97874.16;6323809;28;20515;-64
2022/03/02 09:56:17;;;;;;;8.95;5.45;;;;;;;17.81;16.25;97871.66;6323885;28;20056;-64
2022/03/02 09:59:24;;;;;;;8.77;5.55;;;;;;;17.98;16.36;97858.81;6323686;28;20044;-64
2022/03/02 10:02:40;;;;;;;9.05;5.10;;;;;;;17.51;17.06;97866.84;6323945;28;20418;-65
2022/03/02 10:05:50;;;;;;;7.72;5.35;;;;;;;16.87;17.39;97859.31;6324089;28;20565;-64
2022/03/02 10:08:54;;;;;;;7.80;4.95;;;;;;;16.74;17.47;97863.78;6323217;28;20185;-63
2022/03/02 10:11:58;;;;;;;8.63;5.03;;;;;;;16.40;17.76;97855.66;6323646;28;20052;-65
2022/03/02 10:15:00;;;;;;;9.65;5.70;;;;;;;16.44;17.91;97857.09;6322053;28;20427;-64
2022/03/02 10:18:03;;;;;;;6.93;5.32;;;;;;;16.41;17.79;97852.03;6323262;28;20047;-64
2022/03/02 10:21:07;;;;;;;7.43;4.10;;;;;;;15.91;18.37;97848.56;6323447;28;20044;-64
2022/03/02 10:24:17;;;;;;;8.63;4.97;;;;;;;15.24;19.04;97852.25;6323556;28;20051;-64
2022/03/02 10:27:51;;;;;;;7.07;4.90;;;;;;;15.43;19.05;97851.00;6323394;28;20032;-64
2022/03/02 10:31:11;;;;;;;7.63;5.07;;;;;;;15.78;18.81;97845.06;6322778;28;20044;-64
2022/03/02 10:34:55;;;;;;;7.07;5.03;;;;;;;15.86;18.74;97840.06;6323048;28;20047;-64
2022/03/02 10:38:04;;;;;;;7.47;3.90;;;;;;;15.61;18.89;97836.44;6320587;28;20572;-64
2022/03/02 10:41:11;;;;;;;8.07;4.63;;;;;;;15.47;19.09;97831.25;6323110;28;20154;-65
2022/03/02 10:44:20;;;;;;;7.90;5.28;;;;;;;16.34;18.54;97834.84;6323288;28;20040;-64
2022/03/02 10:47:24;;;;;;;7.13;4.47;;;;;;;16.17;18.29;97813.00;6323200;28;20070;-68
2022/03/02 10:50:32;;;;;;;7.85;4.70;;;;;;;15.52;19.16;97837.09;6321814;28;20125;-64
2022/03/02 10:53:36;;;;;;;7.97;4.82;;;;;;;15.05;19.62;97827.94;6322525;28;20040;-65
2022/03/02 10:56:39;;;;;;;7.15;5.18;;;;;;;14.32;20.35;97831.84;6322055;28;20047;-66
2022/03/02 10:59:44;;;;;;;7.75;5.28;;;;;;;14.24;20.48;97818.25;6322031;28;20103;-64
2022/03/02 11:02:54;;;;;;;9.50;5.18;;;;;;;14.20;20.33;97829.13;6322162;28;20043;-64
2022/03/02 11:06:00;;;;;;;9.55;5.63;;;;;;;13.84;20.67;97823.44;6322209;28;20059;-65
2022/03/02 11:09:05;;;;;;;10.18;5.78;;;;;;;13.16;21.68;97826.72;6322408;28;20052;-63
2022/03/02 11:12:09;;;;;;;9.07;5.00;;;;;;;12.28;22.64;97816.88;6321892;28;20418;-64
2022/03/02 11:15:11;;;;;;;9.98;6.00;;;;;;;11.80;23.21;97816.00;6321973;28;20453;-65
2022/03/02 11:18:17;;;;;;;9.13;4.88;;;;;;;11.72;23.42;97820.84;6322165;28;20052;-65
2022/03/02 11:21:32;;;;;;;12.23;6.65;;;;;;;11.51;23.78;97800.00;6322112;28;20047;-64
2022/03/02 11:24:41;;;;;;;9.55;5.45;;;;;;;11.74;23.49;97816.34;6321486;28;20040;-65
2022/03/02 11:27:45;;;;;;;30.70;16.42;;;;;;;11.52;23.83;97804.34;6320736;28;20056;-65
2022/03/02 11:31:04;;;;;;;9.48;6.18;;;;;;;11.27;24.03;97796.91;6321781;28;20042;-65
2022/03/02 11:34:19;;;;;;;9.40;5.53;;;;;;;10.72;24.74;97811.13;6321374;28;20051;-65
2022/03/02 11:37:27;;;;;;;10.55;5.72;;;;;;;10.42;25.21;97804.78;6321523;28;20126;-64
2022/03/02 11:40:42;;;;;;;10.98;6.35;;;;;;;10.28;25.51;97795.78;6321635;28;20040;-65
2022/03/02 11:43:46;;;;;;;9.38;5.97;;;;;;;9.86;25.98;97791.63;6321407;28;20039;-66
2022/03/02 11:46:47;;;;;;;11.10;5.07;;;;;;;9.62;26.23;97784.88;6320829;28;20145;-65
2022/03/02 11:49:54;;;;;;;11.57;6.20;;;;;;;8.92;27.17;97784.50;6321024;28;20040;-65
2022/03/02 11:52:56;;;;;;;11.70;7.30;;;;;;;8.89;27.33;97774.16;6321015;28;20498;-65
2022/03/02 11:56:01;;;;;;;10.85;6.40;;;;;;;9.64;26.40;97783.03;6320304;28;20052;-64
2022/03/02 11:59:05;;;;;;;11.07;7.10;;;;;;;9.84;26.21;97785.56;6321287;28;20035;-64
2022/03/02 12:02:17;;;;;;;12.55;6.55;;;;;;;9.84;26.03;97782.94;6320988;28;20047;-64
2022/03/02 12:05:26;;;;;;;11.07;6.95;;;;;;;9.32;26.63;97777.47;6320741;28;20044;-64
2022/03/02 12:08:32;;;;;;;10.07;7.28;;;;;;;8.89;27.46;97775.91;6320544;28;20052;-64
2022/03/02 12:11:38;;;;;;;15.00;8.52;;;;;;;8.36;27.91;97769.38;6320756;28;20086;-64
2022/03/02 12:14:57;;;;;;;11.40;6.82;;;;;;;7.93;28.72;97768.50;6320261;28;20066;-64
2022/03/02 12:18:09;;;;;;;11.48;7.78;;;;;;;7.72;29.11;97771.97;6320207;28;20044;-65
2022/03/02 12:21:17;;;;;;;9.65;6.13;;;;;;;7.48;29.56;97764.16;6320557;28;20051;-65
2022/03/02 12:24:34;;;;;;;10.85;7.28;;;;;;;6.75;30.80;97763.31;6320044;28;20055;-64
2022/03/02 12:27:36;;;;;;;11.70;6.70;;;;;;;6.33;31.60;97764.81;6320392;28;20048;-64
2022/03/02 12:30:37;;;;;;;12.60;7.30;;;;;;;5.81;32.45;97749.91;6320128;28;20055;-65
2022/03/02 12:33:41;;;;;;;12.18;7.13;;;;;;;5.40;32.94;97746.78;6320402;28;20414;-65
2022/03/02 12:36:45;;;;;;;13.32;7.05;;;;;;;5.18;33.54;97750.97;6320258;28;20411;-64
2022/03/02 12:39:50;;;;;;;10.38;6.68;;;;;;;5.57;33.10;97748.03;6320092;28;20036;-65
2022/03/02 12:42:54;;;;;;;10.32;6.35;;;;;;;5.83;32.61;97745.50;6320393;28;20044;-64
2022/03/02 12:46:02;;;;;;;13.10;7.15;;;;;;;5.60;33.02;97747.94;6320141;28;20044;-64
2022/03/02 12:49:08;;;;;;;10.82;6.57;;;;;;;5.12;33.73;97733.75;6320091;28;20040;-65
2022/03/02 12:52:12;;;;;;;11.55;7.53;;;;;;;4.98;33.84;97743.69;6320152;28;20521;-66
2022/03/02 12:55:15;;;;;;;14.90;7.00;;;;;;;4.20;35.01;97740.63;6319377;28;20124;-65
2022/03/02 12:58:23;;;;;;;11.25;6.93;;;;;;;2.94;36.73;97740.88;6320119;28;20040;-65
2022/03/02 13:01:26;;;;;;;13.50;8.60;;;;;;;2.03;39.19;97739.13;6319433;28;20058;-65
2022/03/02 13:04:39;;;;;;;13.57;8.15;;;;;;;1.32;41.00;97750.59;6319800;28;20506;-66
2022/03/02 13:08:22;;;;;;;15.13;8.77;;;;;;;1.02;42.15;97744.13;6319319;28;20044;-65
2022/03/02 13:11:27;;;;;;;15.32;7.85;;;;;;;0.32;43.74;97739.75;6298736;28;20537;-64
2022/03/02 13:14:35;;;;;;;17.83;9.02;;;;;;;-0.41;44.79;97733.50;6322961;28;20052;-65
2022/03/02 13:17:36;;;;;;;14.57;7.32;;;;;;;-0.72;45.00;97738.88;6324638;28;20055;-64
2022/03/02 13:20:42;;;;;;;17.70;9.07;;;;;;;-0.87;45.23;97741.56;6324318;28;20040;-64
2022/03/02 13:24:15;;;;;;;17.08;8.48;;;;;;;-1.17;45.85;97740.84;6324814;28;20044;-65
2022/03/02 13:27:23;;;;;;;15.60;7.22;;;;;;;-1.30;46.44;97731.44;6324353;28;20138;-64
2022/03/02 13:30:27;;;;;;;15.60;7.43;;;;;;;-1.38;47.39;97729.75;6324447;28;20085;-64
2022/03/02 13:33:49;;;;;;;11.43;7.30;;;;;;;-1.89;47.98;97736.78;6324263;28;20052;-65
2022/03/02 13:36:59;;;;;;;11.68;6.80;;;;;;;-2.03;48.55;97730.78;6324208;28;20503;-64
2022/03/02 13:40:04;;;;;;;12.50;7.50;;;;;;;-2.35;49.77;97739.41;6324211;28;20450;-64
2022/03/02 13:43:05;;;;;;;15.50;8.30;;;;;;;-2.50;50.51;97734.22;6324093;28;20561;-64
2022/03/02 13:46:17;;;;;;;14.93;7.90;;;;;;;-2.65;51.29;97729.06;6324264;28;20052;-66
2022/03/02 13:49:25;;;;;;;14.13;7.60;;;;;;;-2.64;52.15;97733.34;6324435;28;20139;-65
2022/03/02 13:52:26;;;;;;;19.63;11.57;;;;;;;-3.23;53.51;97727.22;6324092;28;20069;-65
2022/03/02 13:55:31;;;;;;;15.88;7.78;;;;;;;-3.52;54.07;97727.13;6322874;28;20120;-65
2022/03/02 13:58:36;;;;;;;15.77;9.23;;;;;;;-3.51;54.17;97723.69;6324037;28;20071;-64
2022/03/02 14:01:40;;;;;;;14.00;6.50;;;;;;;-3.62;55.01;97736.50;6323999;28;20040;-64
2022/03/02 14:04:46;;;;;;;;;;;;;;;-3.65;55.02;97729.63;6306017;28;20058;-65
2022/03/02 14:07:48;;;;;;;16.35;8.18;;;;;;;-3.99;55.69;97725.13;6323693;28;19927;-64
2022/03/02 14:10:53;;;;;;;17.90;8.15;;;;;;;-4.17;56.43;97731.88;6323232;28;20052;-64
2022/03/02 14:13:57;;;;;;;10.25;5.65;;;;;;;-4.15;56.99;97735.34;6323407;28;20079;-66
2022/03/02 14:17:10;;;;;;;14.25;7.13;;;;;;;-4.20;56.92;97737.00;6323031;28;20051;-64
2022/03/02 14:20:30;;;;;;;15.48;6.40;;;;;;;-4.41;57.96;97735.16;6322530;28;20422;-65
2022/03/02 14:23:45;;;;;;;15.38;6.50;;;;;;;-4.63;58.60;97730.69;6321619;28;20052;-65
2022/03/02 14:27:02;;;;;;;14.15;7.60;;;;;;;-4.77;58.86;97743.38;6323206;28;20055;-66
2022/03/02 14:30:12;;;;;;;20.73;7.43;;;;;;;-4.74;59.23;97738.28;6322042;28;20047;-65